sensor_id;sensor_type;location;lat;lon;timestamp;temperature;humidity
55213;DHT22;41083;52.932;6.674;2022-10-31T00:00:28;13.30;99.90
55213;DHT22;41083;52.932;6.674;2022-10-31T00:02:54;13.30;99.90
55213;DHT22;41083;52.932;6.674;2022-10-31T00:05:19;13.30;99.90
55213;DHT22;41083;52.932;6.674;2022-10-31T00:07:45;13.30;99.90
55213;DHT22;41083;52.932;6.674;2022-10-31T00:10:10;13.30;99.90
55213;DHT22;41083;52.932;6.674;2022-10-31T00:12:36;13.30;99.90
55213;DHT22;41083;52.932;6.674;2022-10-31T00:15:02;13.30;99.90
55213;DHT22;41083;52.932;6.674;2022-10-31T00:17:27;13.30;99.90
55213;DHT22;41083;52.932;6.674;2022-10-31T00:19:53;13.20;99.90
55213;DHT22;41083;52.932;6.674;2022-10-31T00:22:18;13.20;99.90
55213;DHT22;41083;52.932;6.674;2022-10-31T00:24:44;13.20;99.90
55213;DHT22;41083;52.932;6.674;2022-10-31T00:27:10;13.10;99.90
55213;DHT22;41083;52.932;6.674;2022-10-31T00:29:36;13.20;99.90
55213;DHT22;41083;52.932;6.674;2022-10-31T00:32:01;13.10;99.90
55213;DHT22;41083;52.932;6.674;2022-10-31T00:34:27;13.20;99.90
55213;DHT22;41083;52.932;6.674;2022-10-31T00:36:52;13.20;99.90
55213;DHT22;41083;52.932;6.674;2022-10-31T00:39:18;13.20;99.90
55213;DHT22;41083;52.932;6.674;2022-10-31T00:41:43;13.10;99.90
55213;DHT22;41083;52.932;6.674;2022-10-31T00:44:09;13.10;99.90
55213;DHT22;41083;52.932;6.674;2022-10-31T00:46:35;13.00;99.90
55213;DHT22;41083;52.932;6.674;2022-10-31T00:49:00;13.00;99.90
55213;DHT22;41083;52.932;6.674;2022-10-31T00:51:26;13.00;99.90
55213;DHT22;41083;52.932;6.674;2022-10-31T00:53:52;13.00;99.90
55213;DHT22;41083;52.932;6.674;2022-10-31T00:56:17;13.00;99.90
55213;DHT22;41083;52.932;6.674;2022-10-31T00:58:43;13.00;99.90
55213;DHT22;41083;52.932;6.674;2022-10-31T01:01:08;13.00;99.90
55213;DHT22;41083;52.932;6.674;2022-10-31T01:03:34;13.00;99.90
55213;DHT22;41083;52.932;6.674;2022-10-31T01:06:03;13.00;99.90
55213;DHT22;41083;52.932;6.674;2022-10-31T01:08:29;13.00;99.90
55213;DHT22;41083;52.932;6.674;2022-10-31T01:11:16;13.00;99.90
55213;DHT22;41083;52.932;6.674;2022-10-31T01:13:43;12.90;99.90
55213;DHT22;41083;52.932;6.674;2022-10-31T01:16:12;12.90;99.90
55213;DHT22;41083;52.932;6.674;2022-10-31T01:18:38;12.90;99.90
55213;DHT22;41083;52.932;6.674;2022-10-31T01:21:15;12.90;99.90
55213;DHT22;41083;52.932;6.674;2022-10-31T01:23:41;12.80;99.90
55213;DHT22;41083;52.932;6.674;2022-10-31T01:26:10;12.80;99.90
55213;DHT22;41083;52.932;6.674;2022-10-31T01:28:37;12.80;99.90
55213;DHT22;41083;52.932;6.674;2022-10-31T01:31:08;12.70;99.90
55213;DHT22;41083;52.932;6.674;2022-10-31T01:33:35;12.70;99.90
55213;DHT22;41083;52.932;6.674;2022-10-31T01:36:10;12.80;99.90
55213;DHT22;41083;52.932;6.674;2022-10-31T01:38:36;12.70;99.90
55213;DHT22;41083;52.932;6.674;2022-10-31T01:41:02;12.70;99.90
55213;DHT22;41083;52.932;6.674;2022-10-31T01:43:47;12.80;99.90
55213;DHT22;41083;52.932;6.674;2022-10-31T01:46:13;12.70;99.90
55213;DHT22;41083;52.932;6.674;2022-10-31T01:48:40;12.70;99.90
55213;DHT22;41083;52.932;6.674;2022-10-31T01:51:07;12.70;99.90
55213;DHT22;41083;52.932;6.674;2022-10-31T01:53:33;12.70;99.90
55213;DHT22;41083;52.932;6.674;2022-10-31T01:56:00;12.70;99.90
55213;DHT22;41083;52.932;6.674;2022-10-31T01:58:28;12.70;99.90
55213;DHT22;41083;52.932;6.674;2022-10-31T02:00:58;12.70;99.90
55213;DHT22;41083;52.932;6.674;2022-10-31T02:03:25;12.70;99.90
55213;DHT22;41083;52.932;6.674;2022-10-31T02:05:53;12.70;99.90
55213;DHT22;41083;52.932;6.674;2022-10-31T02:08:23;12.70;99.90
55213;DHT22;41083;52.932;6.674;2022-10-31T02:10:50;12.60;99.90
55213;DHT22;41083;52.932;6.674;2022-10-31T02:13:16;12.60;99.90
55213;DHT22;41083;52.932;6.674;2022-10-31T02:15:44;12.60;99.90
55213;DHT22;41083;52.932;6.674;2022-10-31T02:18:10;12.50;99.90
55213;DHT22;41083;52.932;6.674;2022-10-31T02:32:28;12.50;99.90
55213;DHT22;41083;52.932;6.674;2022-10-31T02:40:10;12.50;99.90
55213;DHT22;41083;52.932;6.674;2022-10-31T02:45:28;12.50;99.90
55213;DHT22;41083;52.932;6.674;2022-10-31T02:47:59;12.40;99.90
55213;DHT22;41083;52.932;6.674;2022-10-31T02:50:32;12.40;99.90
55213;DHT22;41083;52.932;6.674;2022-10-31T02:53:01;12.40;99.90
55213;DHT22;41083;52.932;6.674;2022-10-31T02:58:06;12.40;99.90
55213;DHT22;41083;52.932;6.674;2022-10-31T03:00:39;12.40;99.90
55213;DHT22;41083;52.932;6.674;2022-10-31T03:03:20;12.40;99.90
55213;DHT22;41083;52.932;6.674;2022-10-31T03:06:04;12.40;99.90
55213;DHT22;41083;52.932;6.674;2022-10-31T03:11:29;12.40;99.90
55213;DHT22;41083;52.932;6.674;2022-10-31T03:14:06;12.30;99.90
55213;DHT22;41083;52.932;6.674;2022-10-31T03:16:47;12.30;99.90
55213;DHT22;41083;52.932;6.674;2022-10-31T03:19:19;12.40;99.90
55213;DHT22;41083;52.932;6.674;2022-10-31T03:22:01;12.30;99.90
55213;DHT22;41083;52.932;6.674;2022-10-31T03:24:34;12.40;99.90
55213;DHT22;41083;52.932;6.674;2022-10-31T03:27:01;12.30;99.90
55213;DHT22;41083;52.932;6.674;2022-10-31T03:29:29;12.30;99.90
55213;DHT22;41083;52.932;6.674;2022-10-31T03:32:04;12.20;99.90
55213;DHT22;41083;52.932;6.674;2022-10-31T03:34:31;12.20;99.90
55213;DHT22;41083;52.932;6.674;2022-10-31T03:36:59;12.20;99.90
55213;DHT22;41083;52.932;6.674;2022-10-31T03:39:26;12.20;99.90
55213;DHT22;41083;52.932;6.674;2022-10-31T03:42:00;12.20;99.90
55213;DHT22;41083;52.932;6.674;2022-10-31T03:44:29;12.20;99.90
55213;DHT22;41083;52.932;6.674;2022-10-31T03:46:57;12.20;99.90
55213;DHT22;41083;52.932;6.674;2022-10-31T03:49:22;12.10;99.90
55213;DHT22;41083;52.932;6.674;2022-10-31T03:54:46;12.10;99.90
55213;DHT22;41083;52.932;6.674;2022-10-31T03:57:27;12.00;99.90
55213;DHT22;41083;52.932;6.674;2022-10-31T04:00:00;12.00;99.90
55213;DHT22;41083;52.932;6.674;2022-10-31T04:02:31;12.00;99.90
55213;DHT22;41083;52.932;6.674;2022-10-31T04:04:58;12.00;99.90
55213;DHT22;41083;52.932;6.674;2022-10-31T04:07:28;11.90;99.90
55213;DHT22;41083;52.932;6.674;2022-10-31T04:09:56;11.90;99.90
55213;DHT22;41083;52.932;6.674;2022-10-31T04:12:24;11.90;99.90
55213;DHT22;41083;52.932;6.674;2022-10-31T04:14:51;11.90;99.90
55213;DHT22;41083;52.932;6.674;2022-10-31T04:17:20;11.80;99.90
55213;DHT22;41083;52.932;6.674;2022-10-31T04:19:47;11.90;99.90
55213;DHT22;41083;52.932;6.674;2022-10-31T04:22:12;11.80;99.90
55213;DHT22;41083;52.932;6.674;2022-10-31T04:24:39;11.80;99.90
55213;DHT22;41083;52.932;6.674;2022-10-31T04:27:05;11.80;99.90
55213;DHT22;41083;52.932;6.674;2022-10-31T04:29:31;11.70;99.90
55213;DHT22;41083;52.932;6.674;2022-10-31T04:31:57;11.70;99.90
55213;DHT22;41083;52.932;6.674;2022-10-31T04:34:22;11.60;99.90
55213;DHT22;41083;52.932;6.674;2022-10-31T04:36:48;11.60;99.90
55213;DHT22;41083;52.932;6.674;2022-10-31T04:39:13;11.60;99.90
55213;DHT22;41083;52.932;6.674;2022-10-31T04:41:39;11.60;99.90
55213;DHT22;41083;52.932;6.674;2022-10-31T04:44:05;11.60;99.90
55213;DHT22;41083;52.932;6.674;2022-10-31T04:46:30;11.60;99.90
55213;DHT22;41083;52.932;6.674;2022-10-31T04:48:56;11.60;99.90
55213;DHT22;41083;52.932;6.674;2022-10-31T04:51:22;11.60;99.90
55213;DHT22;41083;52.932;6.674;2022-10-31T04:53:47;11.60;99.90
55213;DHT22;41083;52.932;6.674;2022-10-31T04:56:13;11.60;99.90
55213;DHT22;41083;52.932;6.674;2022-10-31T04:58:38;11.50;99.90
55213;DHT22;41083;52.932;6.674;2022-10-31T05:01:04;11.50;99.90
55213;DHT22;41083;52.932;6.674;2022-10-31T05:03:30;11.40;99.90
55213;DHT22;41083;52.932;6.674;2022-10-31T05:05:55;11.40;99.90
55213;DHT22;41083;52.932;6.674;2022-10-31T05:08:21;11.40;99.90
55213;DHT22;41083;52.932;6.674;2022-10-31T05:10:47;11.40;99.90
55213;DHT22;41083;52.932;6.674;2022-10-31T05:13:12;11.50;99.90
55213;DHT22;41083;52.932;6.674;2022-10-31T05:15:40;11.40;99.90
55213;DHT22;41083;52.932;6.674;2022-10-31T05:18:05;11.50;99.90
55213;DHT22;41083;52.932;6.674;2022-10-31T05:20:31;11.50;99.90
55213;DHT22;41083;52.932;6.674;2022-10-31T05:22:57;11.40;99.90
55213;DHT22;41083;52.932;6.674;2022-10-31T05:25:25;11.40;99.90
55213;DHT22;41083;52.932;6.674;2022-10-31T05:27:52;11.30;99.90
55213;DHT22;41083;52.932;6.674;2022-10-31T05:30:20;11.30;99.90
55213;DHT22;41083;52.932;6.674;2022-10-31T05:32:48;11.30;99.90
55213;DHT22;41083;52.932;6.674;2022-10-31T05:35:18;11.30;99.90
55213;DHT22;41083;52.932;6.674;2022-10-31T05:37:44;11.30;99.90
55213;DHT22;41083;52.932;6.674;2022-10-31T05:40:11;11.20;99.90
55213;DHT22;41083;52.932;6.674;2022-10-31T05:42:41;11.30;99.90
55213;DHT22;41083;52.932;6.674;2022-10-31T05:45:08;11.20;99.90
55213;DHT22;41083;52.932;6.674;2022-10-31T05:47:34;11.10;99.90
55213;DHT22;41083;52.932;6.674;2022-10-31T05:50:00;11.10;99.90
55213;DHT22;41083;52.932;6.674;2022-10-31T05:52:25;11.10;99.90
55213;DHT22;41083;52.932;6.674;2022-10-31T05:54:51;11.00;99.90
55213;DHT22;41083;52.932;6.674;2022-10-31T05:57:16;11.00;99.90
55213;DHT22;41083;52.932;6.674;2022-10-31T05:59:42;11.00;99.90
55213;DHT22;41083;52.932;6.674;2022-10-31T06:02:08;10.90;99.90
55213;DHT22;41083;52.932;6.674;2022-10-31T06:04:33;11.00;99.90
55213;DHT22;41083;52.932;6.674;2022-10-31T06:06:59;11.00;99.90
55213;DHT22;41083;52.932;6.674;2022-10-31T06:09:24;11.00;99.90
55213;DHT22;41083;52.932;6.674;2022-10-31T06:11:50;11.00;99.90
55213;DHT22;41083;52.932;6.674;2022-10-31T06:14:15;11.10;99.90
55213;DHT22;41083;52.932;6.674;2022-10-31T06:16:41;11.10;99.90
55213;DHT22;41083;52.932;6.674;2022-10-31T06:19:07;11.10;99.90
55213;DHT22;41083;52.932;6.674;2022-10-31T06:21:32;11.20;99.90
55213;DHT22;41083;52.932;6.674;2022-10-31T06:23:58;11.20;99.90
55213;DHT22;41083;52.932;6.674;2022-10-31T06:26:24;11.20;99.90
55213;DHT22;41083;52.932;6.674;2022-10-31T06:28:49;11.10;99.90
55213;DHT22;41083;52.932;6.674;2022-10-31T06:31:15;11.10;99.90
55213;DHT22;41083;52.932;6.674;2022-10-31T06:33:41;11.10;99.90
55213;DHT22;41083;52.932;6.674;2022-10-31T06:36:08;11.10;99.90
55213;DHT22;41083;52.932;6.674;2022-10-31T06:38:33;11.10;99.90
55213;DHT22;41083;52.932;6.674;2022-10-31T06:41:02;11.10;99.90
55213;DHT22;41083;52.932;6.674;2022-10-31T06:43:29;11.10;99.90
55213;DHT22;41083;52.932;6.674;2022-10-31T06:45:55;11.10;99.90
55213;DHT22;41083;52.932;6.674;2022-10-31T06:48:21;11.10;99.90
55213;DHT22;41083;52.932;6.674;2022-10-31T06:50:46;11.10;99.90
55213;DHT22;41083;52.932;6.674;2022-10-31T06:53:12;11.00;99.90
55213;DHT22;41083;52.932;6.674;2022-10-31T06:55:40;11.00;99.90
55213;DHT22;41083;52.932;6.674;2022-10-31T06:58:06;11.00;99.90
55213;DHT22;41083;52.932;6.674;2022-10-31T07:00:32;11.10;99.90
55213;DHT22;41083;52.932;6.674;2022-10-31T07:03:03;11.10;99.90
55213;DHT22;41083;52.932;6.674;2022-10-31T07:05:29;11.10;99.90
55213;DHT22;41083;52.932;6.674;2022-10-31T07:07:56;11.10;99.90
55213;DHT22;41083;52.932;6.674;2022-10-31T07:10:23;11.10;99.90
55213;DHT22;41083;52.932;6.674;2022-10-31T07:12:54;11.10;99.90
55213;DHT22;41083;52.932;6.674;2022-10-31T07:15:20;11.00;99.90
55213;DHT22;41083;52.932;6.674;2022-10-31T07:17:45;11.00;99.90
55213;DHT22;41083;52.932;6.674;2022-10-31T07:20:11;11.00;99.90
55213;DHT22;41083;52.932;6.674;2022-10-31T07:22:38;11.00;99.90
55213;DHT22;41083;52.932;6.674;2022-10-31T07:25:04;11.00;99.90
55213;DHT22;41083;52.932;6.674;2022-10-31T07:27:36;11.00;99.90
55213;DHT22;41083;52.932;6.674;2022-10-31T07:30:02;11.00;99.90
55213;DHT22;41083;52.932;6.674;2022-10-31T07:32:28;10.90;99.90
55213;DHT22;41083;52.932;6.674;2022-10-31T07:35:02;10.90;99.90
55213;DHT22;41083;52.932;6.674;2022-10-31T07:37:27;10.90;99.90
55213;DHT22;41083;52.932;6.674;2022-10-31T07:39:53;11.00;99.90
55213;DHT22;41083;52.932;6.674;2022-10-31T07:42:18;10.90;99.90
55213;DHT22;41083;52.932;6.674;2022-10-31T07:44:44;10.90;99.90
55213;DHT22;41083;52.932;6.674;2022-10-31T07:47:09;10.90;99.90
55213;DHT22;41083;52.932;6.674;2022-10-31T07:49:35;10.90;99.90
55213;DHT22;41083;52.932;6.674;2022-10-31T07:52:01;10.90;99.90
55213;DHT22;41083;52.932;6.674;2022-10-31T07:54:26;11.00;99.90
55213;DHT22;41083;52.932;6.674;2022-10-31T07:56:52;11.00;99.90
55213;DHT22;41083;52.932;6.674;2022-10-31T07:59:18;11.00;99.90
55213;DHT22;41083;52.932;6.674;2022-10-31T08:01:43;11.00;99.90
55213;DHT22;41083;52.932;6.674;2022-10-31T08:04:09;11.00;99.90
55213;DHT22;41083;52.932;6.674;2022-10-31T08:06:35;11.00;99.90
55213;DHT22;41083;52.932;6.674;2022-10-31T08:09:00;11.10;99.90
55213;DHT22;41083;52.932;6.674;2022-10-31T08:11:26;11.10;99.90
55213;DHT22;41083;52.932;6.674;2022-10-31T08:13:51;11.10;99.90
55213;DHT22;41083;52.932;6.674;2022-10-31T08:16:17;11.20;99.90
55213;DHT22;41083;52.932;6.674;2022-10-31T08:18:43;11.20;99.90
55213;DHT22;41083;52.932;6.674;2022-10-31T08:21:08;11.30;99.90
55213;DHT22;41083;52.932;6.674;2022-10-31T08:23:34;11.30;99.90
55213;DHT22;41083;52.932;6.674;2022-10-31T08:26:00;11.30;99.90
55213;DHT22;41083;52.932;6.674;2022-10-31T08:28:25;11.30;99.90
55213;DHT22;41083;52.932;6.674;2022-10-31T08:30:51;11.40;99.90
55213;DHT22;41083;52.932;6.674;2022-10-31T08:33:18;11.40;99.90
55213;DHT22;41083;52.932;6.674;2022-10-31T08:35:44;11.50;99.90
55213;DHT22;41083;52.932;6.674;2022-10-31T08:38:11;11.50;99.90
55213;DHT22;41083;52.932;6.674;2022-10-31T08:40:37;11.60;99.90
55213;DHT22;41083;52.932;6.674;2022-10-31T08:43:14;11.60;99.90
55213;DHT22;41083;52.932;6.674;2022-10-31T08:45:40;11.70;99.90
55213;DHT22;41083;52.932;6.674;2022-10-31T08:48:09;11.70;99.90
55213;DHT22;41083;52.932;6.674;2022-10-31T08:50:35;11.80;99.90
55213;DHT22;41083;52.932;6.674;2022-10-31T08:53:02;11.80;99.90
55213;DHT22;41083;52.932;6.674;2022-10-31T08:55:28;11.90;99.90
55213;DHT22;41083;52.932;6.674;2022-10-31T08:57:56;11.90;99.90
55213;DHT22;41083;52.932;6.674;2022-10-31T09:00:22;11.90;99.90
55213;DHT22;41083;52.932;6.674;2022-10-31T09:02:47;12.00;99.90
55213;DHT22;41083;52.932;6.674;2022-10-31T09:05:13;12.00;99.90
55213;DHT22;41083;52.932;6.674;2022-10-31T09:07:39;12.10;99.90
55213;DHT22;41083;52.932;6.674;2022-10-31T09:10:05;12.10;99.90
55213;DHT22;41083;52.932;6.674;2022-10-31T09:12:30;12.10;99.90
55213;DHT22;41083;52.932;6.674;2022-10-31T09:14:56;12.20;99.90
55213;DHT22;41083;52.932;6.674;2022-10-31T09:17:22;12.20;99.90
55213;DHT22;41083;52.932;6.674;2022-10-31T09:19:47;12.20;99.90
55213;DHT22;41083;52.932;6.674;2022-10-31T09:22:14;12.30;99.90
55213;DHT22;41083;52.932;6.674;2022-10-31T09:24:39;12.30;99.90
55213;DHT22;41083;52.932;6.674;2022-10-31T09:27:05;12.30;99.90
55213;DHT22;41083;52.932;6.674;2022-10-31T09:29:30;12.30;99.90
55213;DHT22;41083;52.932;6.674;2022-10-31T09:31:56;12.40;99.90
55213;DHT22;41083;52.932;6.674;2022-10-31T09:34:22;12.40;99.90
55213;DHT22;41083;52.932;6.674;2022-10-31T09:36:47;12.50;99.90
55213;DHT22;41083;52.932;6.674;2022-10-31T09:39:13;12.50;99.90
55213;DHT22;41083;52.932;6.674;2022-10-31T09:42:07;12.50;99.90
55213;DHT22;41083;52.932;6.674;2022-10-31T09:45:11;12.50;99.90
55213;DHT22;41083;52.932;6.674;2022-10-31T09:51:37;12.50;99.90
55213;DHT22;41083;52.932;6.674;2022-10-31T09:53:38;12.50;99.90
55213;DHT22;41083;52.932;6.674;2022-10-31T09:56:08;12.60;99.90
55213;DHT22;41083;52.932;6.674;2022-10-31T09:58:40;12.60;99.90
55213;DHT22;41083;52.932;6.674;2022-10-31T10:01:58;12.60;99.90
55213;DHT22;41083;52.932;6.674;2022-10-31T10:06:39;12.60;99.90
55213;DHT22;41083;52.932;6.674;2022-10-31T10:09:08;12.70;99.90
55213;DHT22;41083;52.932;6.674;2022-10-31T10:11:48;12.70;99.90
55213;DHT22;41083;52.932;6.674;2022-10-31T10:22:50;12.80;99.90
55213;DHT22;41083;52.932;6.674;2022-10-31T10:25:32;12.80;99.90
55213;DHT22;41083;52.932;6.674;2022-10-31T10:28:21;12.80;99.90
55213;DHT22;41083;52.932;6.674;2022-10-31T10:30:50;12.90;99.90
55213;DHT22;41083;52.932;6.674;2022-10-31T10:33:58;12.90;99.90
55213;DHT22;41083;52.932;6.674;2022-10-31T10:36:26;12.90;99.90
55213;DHT22;41083;52.932;6.674;2022-10-31T10:38:58;13.00;99.90
55213;DHT22;41083;52.932;6.674;2022-10-31T10:41:32;13.00;99.90
55213;DHT22;41083;52.932;6.674;2022-10-31T10:43:58;13.10;99.90
55213;DHT22;41083;52.932;6.674;2022-10-31T10:46:37;13.10;99.90
55213;DHT22;41083;52.932;6.674;2022-10-31T10:49:39;13.20;99.90
55213;DHT22;41083;52.932;6.674;2022-10-31T10:52:29;13.30;99.90
55213;DHT22;41083;52.932;6.674;2022-10-31T10:55:02;13.30;99.90
55213;DHT22;41083;52.932;6.674;2022-10-31T11:02:44;13.50;99.90
55213;DHT22;41083;52.932;6.674;2022-10-31T11:07:56;13.50;99.90
55213;DHT22;41083;52.932;6.674;2022-10-31T11:10:22;13.60;99.90
55213;DHT22;41083;52.932;6.674;2022-10-31T11:15:56;13.70;99.90
55213;DHT22;41083;52.932;6.674;2022-10-31T11:18:24;13.70;99.90
55213;DHT22;41083;52.932;6.674;2022-10-31T11:20:52;13.80;99.90
55213;DHT22;41083;52.932;6.674;2022-10-31T11:23:20;13.80;99.90
55213;DHT22;41083;52.932;6.674;2022-10-31T11:26:01;13.80;99.90
55213;DHT22;41083;52.932;6.674;2022-10-31T11:28:28;13.90;99.90
55213;DHT22;41083;52.932;6.674;2022-10-31T11:31:08;13.90;99.90
55213;DHT22;41083;52.932;6.674;2022-10-31T11:33:47;13.90;99.90
55213;DHT22;41083;52.932;6.674;2022-10-31T11:36:35;13.90;99.90
55213;DHT22;41083;52.932;6.674;2022-10-31T11:39:04;13.90;99.90
55213;DHT22;41083;52.932;6.674;2022-10-31T11:41:35;13.90;99.90
55213;DHT22;41083;52.932;6.674;2022-10-31T11:46:52;14.00;99.90
55213;DHT22;41083;52.932;6.674;2022-10-31T11:49:38;13.90;99.90
55213;DHT22;41083;52.932;6.674;2022-10-31T11:54:53;14.00;99.90
55213;DHT22;41083;52.932;6.674;2022-10-31T11:57:41;14.00;99.90
55213;DHT22;41083;52.932;6.674;2022-10-31T12:00:23;14.00;99.90
55213;DHT22;41083;52.932;6.674;2022-10-31T12:02:50;14.00;99.90
55213;DHT22;41083;52.932;6.674;2022-10-31T12:05:23;14.00;99.90
55213;DHT22;41083;52.932;6.674;2022-10-31T12:07:51;14.10;99.90
55213;DHT22;41083;52.932;6.674;2022-10-31T12:10:21;14.10;99.90
55213;DHT22;41083;52.932;6.674;2022-10-31T12:13:01;14.10;99.90
55213;DHT22;41083;52.932;6.674;2022-10-31T12:15:36;14.20;99.90
55213;DHT22;41083;52.932;6.674;2022-10-31T12:18:31;14.20;99.90
55213;DHT22;41083;52.932;6.674;2022-10-31T12:21:04;14.30;99.90
55213;DHT22;41083;52.932;6.674;2022-10-31T12:24:26;14.30;99.90
55213;DHT22;41083;52.932;6.674;2022-10-31T12:26:40;14.30;99.90
55213;DHT22;41083;52.932;6.674;2022-10-31T12:29:31;14.30;99.90
55213;DHT22;41083;52.932;6.674;2022-10-31T12:38:08;14.40;99.90
55213;DHT22;41083;52.932;6.674;2022-10-31T12:40:56;14.40;99.90
55213;DHT22;41083;52.932;6.674;2022-10-31T12:45:58;14.40;99.90
55213;DHT22;41083;52.932;6.674;2022-10-31T12:57:13;14.50;99.90
55213;DHT22;41083;52.932;6.674;2022-10-31T12:59:44;14.50;99.90
55213;DHT22;41083;52.932;6.674;2022-10-31T13:04:53;14.50;99.90
55213;DHT22;41083;52.932;6.674;2022-10-31T13:07:44;14.50;99.90
55213;DHT22;41083;52.932;6.674;2022-10-31T13:10:21;14.50;99.90
55213;DHT22;41083;52.932;6.674;2022-10-31T13:12:49;14.50;99.90
55213;DHT22;41083;52.932;6.674;2022-10-31T13:15:20;14.50;99.90
55213;DHT22;41083;52.932;6.674;2022-10-31T13:17:54;14.50;99.90
55213;DHT22;41083;52.932;6.674;2022-10-31T13:20:32;14.50;99.90
55213;DHT22;41083;52.932;6.674;2022-10-31T13:23:26;14.60;99.90
55213;DHT22;41083;52.932;6.674;2022-10-31T13:25:55;14.60;99.90
55213;DHT22;41083;52.932;6.674;2022-10-31T13:28:26;14.60;99.90
55213;DHT22;41083;52.932;6.674;2022-10-31T13:30:53;14.60;99.90
55213;DHT22;41083;52.932;6.674;2022-10-31T13:33:46;14.70;99.90
55213;DHT22;41083;52.932;6.674;2022-10-31T13:36:21;14.70;99.90
55213;DHT22;41083;52.932;6.674;2022-10-31T13:41:47;14.80;99.90
55213;DHT22;41083;52.932;6.674;2022-10-31T13:44:29;14.70;99.90
55213;DHT22;41083;52.932;6.674;2022-10-31T13:46:57;14.80;99.90
55213;DHT22;41083;52.932;6.674;2022-10-31T13:49:35;14.60;99.90
55213;DHT22;41083;52.932;6.674;2022-10-31T13:54:46;14.80;99.90
55213;DHT22;41083;52.932;6.674;2022-10-31T13:57:21;14.80;99.90
55213;DHT22;41083;52.932;6.674;2022-10-31T13:59:56;14.80;99.90
55213;DHT22;41083;52.932;6.674;2022-10-31T14:02:31;14.80;99.90
55213;DHT22;41083;52.932;6.674;2022-10-31T14:05:04;14.80;99.90
55213;DHT22;41083;52.932;6.674;2022-10-31T14:07:31;14.70;99.90
55213;DHT22;41083;52.932;6.674;2022-10-31T14:10:04;14.80;99.90
55213;DHT22;41083;52.932;6.674;2022-10-31T14:12:42;14.80;99.90
55213;DHT22;41083;52.932;6.674;2022-10-31T14:15:24;14.70;99.90
55213;DHT22;41083;52.932;6.674;2022-10-31T14:17:57;14.70;99.90
55213;DHT22;41083;52.932;6.674;2022-10-31T14:20:44;14.70;99.90
55213;DHT22;41083;52.932;6.674;2022-10-31T14:28:54;14.60;99.90
55213;DHT22;41083;52.932;6.674;2022-10-31T14:31:45;14.60;99.90
55213;DHT22;41083;52.932;6.674;2022-10-31T14:34:25;14.60;99.90
55213;DHT22;41083;52.932;6.674;2022-10-31T14:37:02;14.60;99.90
55213;DHT22;41083;52.932;6.674;2022-10-31T14:39:47;14.60;99.90
55213;DHT22;41083;52.932;6.674;2022-10-31T14:42:41;14.60;99.90
55213;DHT22;41083;52.932;6.674;2022-10-31T14:47:58;14.60;99.90
55213;DHT22;41083;52.932;6.674;2022-10-31T14:53:08;14.60;99.90
55213;DHT22;41083;52.932;6.674;2022-10-31T14:55:42;14.60;99.90
55213;DHT22;41083;52.932;6.674;2022-10-31T14:58:09;14.60;99.90
55213;DHT22;41083;52.932;6.674;2022-10-31T15:00:35;14.60;99.90
55213;DHT22;41083;52.932;6.674;2022-10-31T15:03:30;14.60;99.90
55213;DHT22;41083;52.932;6.674;2022-10-31T15:06:00;14.60;99.90
55213;DHT22;41083;52.932;6.674;2022-10-31T15:08:34;14.50;99.90
55213;DHT22;41083;52.932;6.674;2022-10-31T15:11:13;14.60;99.90
55213;DHT22;41083;52.932;6.674;2022-10-31T15:16:16;14.50;99.90
55213;DHT22;41083;52.932;6.674;2022-10-31T15:19:13;14.50;99.90
55213;DHT22;41083;52.932;6.674;2022-10-31T15:21:44;14.50;99.90
55213;DHT22;41083;52.932;6.674;2022-10-31T15:24:14;14.50;99.90
55213;DHT22;41083;52.932;6.674;2022-10-31T15:26:51;14.50;99.90
55213;DHT22;41083;52.932;6.674;2022-10-31T15:29:22;14.40;99.90
55213;DHT22;41083;52.932;6.674;2022-10-31T15:31:52;14.40;99.90
55213;DHT22;41083;52.932;6.674;2022-10-31T15:34:39;14.40;99.90
55213;DHT22;41083;52.932;6.674;2022-10-31T15:37:08;14.40;99.90
55213;DHT22;41083;52.932;6.674;2022-10-31T15:39:35;14.40;99.90
55213;DHT22;41083;52.932;6.674;2022-10-31T15:42:01;14.40;99.90
55213;DHT22;41083;52.932;6.674;2022-10-31T15:44:33;14.40;99.90
55213;DHT22;41083;52.932;6.674;2022-10-31T15:47:05;14.40;99.90
55213;DHT22;41083;52.932;6.674;2022-10-31T15:52:27;14.30;99.90
55213;DHT22;41083;52.932;6.674;2022-10-31T15:55:00;14.30;99.90
55213;DHT22;41083;52.932;6.674;2022-10-31T15:57:26;14.20;99.90
55213;DHT22;41083;52.932;6.674;2022-10-31T15:59:52;14.20;99.90
55213;DHT22;41083;52.932;6.674;2022-10-31T16:02:26;14.20;99.90
55213;DHT22;41083;52.932;6.674;2022-10-31T16:05:00;14.10;99.90
55213;DHT22;41083;52.932;6.674;2022-10-31T16:07:28;14.10;99.90
55213;DHT22;41083;52.932;6.674;2022-10-31T16:10:03;14.10;99.90
55213;DHT22;41083;52.932;6.674;2022-10-31T16:12:44;14.10;99.90
55213;DHT22;41083;52.932;6.674;2022-10-31T16:15:15;14.10;99.90
55213;DHT22;41083;52.932;6.674;2022-10-31T16:17:44;14.00;99.90
55213;DHT22;41083;52.932;6.674;2022-10-31T16:20:27;14.00;99.90
55213;DHT22;41083;52.932;6.674;2022-10-31T16:22:55;14.00;99.90
55213;DHT22;41083;52.932;6.674;2022-10-31T16:25:36;14.00;99.90
55213;DHT22;41083;52.932;6.674;2022-10-31T16:28:05;14.00;99.90
55213;DHT22;41083;52.932;6.674;2022-10-31T16:30:46;14.00;99.90
55213;DHT22;41083;52.932;6.674;2022-10-31T16:33:30;13.90;99.90
55213;DHT22;41083;52.932;6.674;2022-10-31T16:38:53;13.90;99.90
55213;DHT22;41083;52.932;6.674;2022-10-31T16:41:19;13.90;99.90
55213;DHT22;41083;52.932;6.674;2022-10-31T16:43:45;13.90;99.90
55213;DHT22;41083;52.932;6.674;2022-10-31T16:46:25;13.90;99.90
55213;DHT22;41083;52.932;6.674;2022-10-31T16:48:51;13.90;99.90
55213;DHT22;41083;52.932;6.674;2022-10-31T16:51:17;13.90;99.90
55213;DHT22;41083;52.932;6.674;2022-10-31T16:53:42;13.90;99.90
55213;DHT22;41083;52.932;6.674;2022-10-31T16:56:16;13.90;99.90
55213;DHT22;41083;52.932;6.674;2022-10-31T16:58:42;13.90;99.90
55213;DHT22;41083;52.932;6.674;2022-10-31T17:01:09;13.90;99.90
55213;DHT22;41083;52.932;6.674;2022-10-31T17:03:36;13.90;99.90
55213;DHT22;41083;52.932;6.674;2022-10-31T17:06:02;13.90;99.90
55213;DHT22;41083;52.932;6.674;2022-10-31T17:08:28;13.90;99.90
55213;DHT22;41083;52.932;6.674;2022-10-31T17:10:56;13.90;99.90
55213;DHT22;41083;52.932;6.674;2022-10-31T17:13:26;13.90;99.90
55213;DHT22;41083;52.932;6.674;2022-10-31T17:15:54;13.90;99.90
55213;DHT22;41083;52.932;6.674;2022-10-31T17:18:20;13.90;99.90
55213;DHT22;41083;52.932;6.674;2022-10-31T17:20:46;13.90;99.90
55213;DHT22;41083;52.932;6.674;2022-10-31T17:23:13;13.90;99.90
55213;DHT22;41083;52.932;6.674;2022-10-31T17:25:39;13.90;99.90
55213;DHT22;41083;52.932;6.674;2022-10-31T17:28:05;13.90;99.90
55213;DHT22;41083;52.932;6.674;2022-10-31T17:30:32;13.90;99.90
55213;DHT22;41083;52.932;6.674;2022-10-31T17:32:58;13.80;99.90